Albion, IA

3:05 PM CDT on July 10, 2014 (GMT -0500)
Iowa Falls Municipal (KIFA) Elev 1138 ft | 42.47 °N, 93.27 °W | Change Station

Current weather conditions updated 10 minutes ago

Clear
Clear
81 °F
Feels Like 81 °F
N
16
Wind Variable Wind from South

Today is forecast to be Warmer than yesterday.

Today
High -- | Low -- °F
--% Chance of Precip.
Yesterday
High -- | Low -- °F
Precip. -- in
5:45 AM 8:49 PM
Waxing Gibbous, 96% visible
Pressure 30.08 in
Visibility 10.0 miles
Clouds Clear
Heat Index 81 °F
Dew Point 57 °F
Humidity 45%
Rainfall 0.00 in
Snow Depth Not available.
UV 10 out of 12
Pollen 3.80 out of 12
Air Quality Not available.
Flu Activity Sporadic
METAR KIFA 101955Z AUTO 18014KT 10SM CLR 27/14 A3008 RMK AO2 T02700141

More Conditions Fewer Conditions

Pressure 30.08 in
Visibility 10.0 miles
Clouds Clear
Heat Index 81 °F
Dew Point 57 °F
Humidity 45%
Rainfall 0.00 in
Snow Depth Not available.
UV 10 out of 12
Pollen 3.80 out of 12
Air Quality Not available.
Flu Activity Sporadic
METAR KIFA 101955Z AUTO 18014KT 10SM CLR 27/14 A3008 RMK AO2 T02700141

More Conditions Fewer Conditions

10-Day Weather Forecast

Almanac

Astronomy

Jul. 10, 2014 Rise Set
Actual Time 5:45 AM CDT 8:49 PM CDT
Civil Twilight 5:11 AM CDT 9:22 PM CDT
Nautical Twilight 4:28 AM CDT 10:05 PM CDT
Astronomical Twilight 3:37 AM CDT 10:56 PM CDT
Moon 7:01 PM CDT 3:58 AM CDT
Length of Visible Light 16h 11m
Length of Day
15h 03m
Tomorrow will be 1m 13s shorter.
Waxing Gibbous, 96% of the Moon is Illuminated
Today
Waxing Gibbous
Jul 12
Full
Jul 18
Last Quarter
Jul 26
New
Aug 3
First Quarter

Today's Extremes

State Highs State Lows

Community

WunderPhotos

Upload Photos

1,732,250 photos uploaded!

Nearby

Snow Depth

Station Depth Elevation
No new snow has been reported.

Earthquake Activity

City Distance Mag. Time & Date
No recent earthquake activity has been reported nearby.
Minimum magnitude displayed is 2.5.

Coastal Water Temperatures

Place Temperature
No Stations Reporting

Nearby Weather Stations

Station Location Temp. Heat Index Dew Point Humidity Wind Precip. Elev Updated Type
MesoWest LAMOI1 , Marshalltown, IA 87 °F 84 °F - - North  at  - 0.00 in / hr 937 ft 1:40 PM CDT MADIS
Anderson Farms, Beaman, IA 82.1 °F 83 °F 63 °F 53% SW  at  2.0 mph 0.00 in / hr 1043 ft 2:54 PM CDT Normal
KB0MGH, Gladbrook, IA 84.6 °F 85 °F 61 °F 45% WSW  at  1.5 mph 0.00 in / hr 1010 ft 3:05 PM CDT Rapid Fire
MesoWest COLO1 , Colo, IA 80 °F 78 °F - - North  at  - 0.00 in / hr 1045 ft 2:05 PM CDT MADIS
MesoWest GARDEN , Garden City, IA 82 °F 80 °F - - North  at  - 0.00 in / hr 1200 ft 12:35 PM CDT MADIS

Show More Stations Show Fewer Stations